Terminal Aerodrome Forecast
Issued by NWS Charleston, WV

Current Version | Previous Version | Graphics & Text | Print | Product List | Glossary On
Versions: 1 2 3 4 5 6 7 8 9 10 11 12 13 14 15 16 17 18 19 20 21 22
000
FTUS41 KRLX 230539
TAFPKB
TAF
KPKB 230539Z 2306/2406 00000KT 6SM BR SKC
     FM230700 00000KT 4SM BR SCT001
     FM230800 00000KT 1/2SM FG VV001
     FM231300 VRB03KT P6SM SCT030
     FM231800 25004KT P6SM SCT045=

USA.gov is the U.S. government's official web portal to all federal, state and local government web resources and services.